Time;durP1;ratioP1;P1;durP2;ratioP2;P2;SDS_P1;SDS_P2;PMS_P1;PMS_P2;Temp;Humidity;BMP_temperature;BMP_pressure;BME280_temperature;BME280_humidity;BME280_pressure;Samples;Min_cycle;Max_cycle;Signal;HPM_P1;HPM_P2
2024/02/16 00:01:18;;;;;;;5.82;3.80;;;10.90;61.70;;;;;;4956426;28;20106;-74
2024/02/16 00:03:44;;;;;;;6.80;3.47;;;10.90;61.80;;;;;;4956275;28;20035;-73
2024/02/16 00:06:10;;;;;;;7.55;3.67;;;10.80;61.80;;;;;;4956266;28;20022;-73
2024/02/16 00:08:38;;;;;;;7.47;2.92;;;10.80;61.90;;;;;;4956209;28;20023;-73
2024/02/16 00:11:04;;;;;;;5.57;2.88;;;10.70;61.80;;;;;;4956253;28;20061;-73
2024/02/16 00:13:30;;;;;;;6.25;3.25;;;10.70;61.40;;;;;;4956292;28;20029;-73
2024/02/16 00:15:55;;;;;;;6.03;3.28;;;10.80;61.40;;;;;;4949126;29;20059;-74
2024/02/16 00:18:21;;;;;;;8.82;3.22;;;10.80;61.10;;;;;;4937218;29;20050;-74
2024/02/16 00:20:46;;;;;;;6.68;3.60;;;10.70;61.00;;;;;;4939035;29;20112;-73
2024/02/16 00:23:12;;;;;;;6.35;3.20;;;10.80;61.00;;;;;;4940407;29;20412;-73
2024/02/16 00:25:39;;;;;;;5.10;3.72;;;10.80;60.80;;;;;;4940105;29;20519;-73
2024/02/16 00:28:05;;;;;;;5.80;3.13;;;10.80;60.80;;;;;;4939799;29;20035;-73
2024/02/16 00:30:30;;;;;;;3.75;2.75;;;10.90;61.20;;;;;;4940257;29;20380;-73
2024/02/16 00:32:56;;;;;;;4.40;2.63;;;10.80;61.50;;;;;;4939975;29;20024;-73
2024/02/16 00:35:22;;;;;;;5.97;3.10;;;10.80;61.40;;;;;;4940119;29;20032;-73
2024/02/16 00:37:47;;;;;;;6.82;2.38;;;10.70;60.90;;;;;;4940174;29;20028;-73
2024/02/16 00:40:13;;;;;;;5.97;2.90;;;10.70;59.70;;;;;;4940011;29;20536;-74
2024/02/16 00:42:39;;;;;;;8.88;3.15;;;10.70;59.50;;;;;;4939957;29;20400;-73
2024/02/16 00:45:05;;;;;;;6.32;2.72;;;10.70;59.70;;;;;;4940071;29;20019;-73
2024/02/16 00:47:31;;;;;;;3.95;2.83;;;10.70;59.70;;;;;;4939932;29;20094;-74
2024/02/16 00:49:57;;;;;;;7.93;2.97;;;10.70;59.80;;;;;;4955861;29;20456;-73
2024/02/16 00:52:22;;;;;;;5.78;2.80;;;10.70;59.60;;;;;;4939913;29;20031;-74
2024/02/16 00:54:49;;;;;;;5.93;3.20;;;10.70;59.60;;;;;;4939891;29;20043;-74
2024/02/16 00:57:14;;;;;;;6.00;3.13;;;10.70;60.20;;;;;;4939708;29;20035;-73
2024/02/16 00:59:40;;;;;;;5.68;3.40;;;10.80;59.10;;;;;;4939799;29;20074;-75
2024/02/16 01:02:06;;;;;;;5.63;3.22;;;10.80;59.10;;;;;;4956436;29;20396;-75
2024/02/16 01:04:33;;;;;;;6.72;3.80;;;10.90;59.10;;;;;;4956437;29;20045;-74
2024/02/16 01:06:58;;;;;;;4.22;2.53;;;10.90;58.80;;;;;;4939597;29;20024;-74
2024/02/16 01:09:24;;;;;;;7.85;2.95;;;10.90;58.10;;;;;;4956452;29;20559;-74
2024/02/16 01:11:50;;;;;;;4.35;2.33;;;10.90;56.90;;;;;;4939497;29;20119;-73
2024/02/16 01:14:15;;;;;;;3.28;2.15;;;11.00;55.90;;;;;;4939541;29;20023;-73
2024/02/16 01:16:41;;;;;;;2.95;1.58;;;11.00;55.70;;;;;;4952010;28;20456;-72
2024/02/16 01:19:07;;;;;;;2.30;1.33;;;11.10;54.70;;;;;;4975877;28;20043;-73
2024/02/16 01:21:33;;;;;;;5.65;2.00;;;11.20;54.10;;;;;;4958500;28;20026;-73
2024/02/16 01:24:00;;;;;;;3.55;2.00;;;11.30;54.50;;;;;;4958570;28;20038;-74
2024/02/16 01:26:27;;;;;;;8.02;3.08;;;11.40;55.00;;;;;;4975568;28;20109;-74
2024/02/16 01:28:52;;;;;;;5.22;2.22;;;11.30;56.10;;;;;;4958086;28;20471;-73
2024/02/16 01:31:18;;;;;;;2.17;1.98;;;11.30;56.60;;;;;;4957998;28;20022;-74
2024/02/16 01:33:43;;;;;;;4.53;3.00;;;11.30;56.70;;;;;;4958361;28;20027;-73
2024/02/16 01:36:09;;;;;;;4.45;2.88;;;11.20;57.00;;;;;;4958318;28;20472;-73
2024/02/16 01:38:34;;;;;;;4.65;2.38;;;11.20;57.20;;;;;;4957954;28;20118;-73
2024/02/16 01:41:01;;;;;;;4.45;2.03;;;11.20;57.40;;;;;;4958185;28;20062;-73
2024/02/16 01:43:27;;;;;;;18.70;12.50;;;11.20;55.70;;;;;;4958158;28;20031;-73
2024/02/16 01:45:53;;;;;;;21.48;13.85;;;11.10;56.30;;;;;;4958163;28;20023;-73
2024/02/16 01:48:19;;;;;;;11.43;6.97;;;11.20;56.50;;;;;;4958126;28;20030;-73
2024/02/16 01:50:45;;;;;;;5.22;3.63;;;11.20;57.10;;;;;;4958087;28;20375;-73
2024/02/16 01:53:12;;;;;;;4.93;3.33;;;11.20;57.30;;;;;;4957960;28;20031;-74
2024/02/16 01:55:38;;;;;;;2.90;2.50;;;11.20;57.40;;;;;;4957976;28;20027;-74
2024/02/16 01:58:04;;;;;;;3.85;2.60;;;11.20;57.70;;;;;;4973685;28;20117;-73
2024/02/16 02:00:30;;;;;;;6.28;2.80;;;11.20;57.90;;;;;;4957827;28;20030;-73
2024/02/16 02:02:57;;;;;;;5.93;3.28;;;11.20;58.20;;;;;;4973568;28;20125;-74
2024/02/16 02:05:22;;;;;;;7.03;3.95;;;11.20;58.30;;;;;;4957633;28;20388;-74
2024/02/16 02:07:48;;;;;;;5.40;3.60;;;11.20;58.50;;;;;;4974701;28;20030;-73
2024/02/16 02:10:14;;;;;;;5.95;2.40;;;11.20;58.60;;;;;;4957649;28;20019;-73
2024/02/16 02:12:42;;;;;;;3.63;2.20;;;11.10;58.60;;;;;;4957574;28;20037;-73
2024/02/16 02:15:08;;;;;;;3.97;2.58;;;10.90;59.80;;;;;;4957508;28;20049;-73
2024/02/16 02:17:34;;;;;;;7.68;3.40;;;10.90;60.10;;;;;;4973691;28;20126;-73
2024/02/16 02:20:00;;;;;;;4.95;2.53;;;10.80;60.10;;;;;;4973589;28;20114;-73
2024/02/16 02:22:27;;;;;;;4.97;2.35;;;10.70;60.40;;;;;;4973348;28;20026;-73
2024/02/16 02:24:55;;;;;;;3.25;2.10;;;10.70;60.70;;;;;;4957297;28;20088;-73
2024/02/16 02:27:21;;;;;;;3.22;1.95;;;10.70;60.80;;;;;;4957343;28;20109;-73
2024/02/16 02:29:47;;;;;;;5.57;2.05;;;10.70;60.90;;;;;;4973203;28;20078;-74
2024/02/16 02:32:13;;;;;;;3.33;1.98;;;10.70;60.90;;;;;;4957269;28;20031;-73
2024/02/16 02:34:39;;;;;;;3.33;2.22;;;10.70;60.80;;;;;;4956944;28;20085;-73
2024/02/16 02:37:05;;;;;;;3.95;2.15;;;10.70;60.80;;;;;;4957107;28;20464;-73
2024/02/16 02:39:32;;;;;;;3.13;2.10;;;10.70;61.00;;;;;;4973317;28;20062;-73
2024/02/16 02:41:57;;;;;;;4.82;2.08;;;10.70;60.60;;;;;;4956625;28;20038;-73
2024/02/16 02:44:24;;;;;;;2.83;1.70;;;10.70;60.10;;;;;;4956665;28;20042;-74
2024/02/16 02:46:49;;;;;;;2.58;2.13;;;10.70;59.70;;;;;;4973138;28;20026;-74
2024/02/16 02:49:15;;;;;;;5.07;1.83;;;10.70;59.90;;;;;;4957098;28;20388;-74
2024/02/16 02:51:40;;;;;;;4.18;1.83;;;10.70;59.70;;;;;;4957013;28;20061;-73
2024/02/16 02:54:06;;;;;;;3.08;2.15;;;10.70;59.80;;;;;;4974090;28;20122;-74
2024/02/16 02:56:32;;;;;;;2.83;1.80;;;10.70;59.80;;;;;;4957031;28;20018;-74
2024/02/16 02:58:57;;;;;;;3.10;1.63;;;10.70;59.70;;;;;;4956945;28;20035;-73
2024/02/16 03:01:23;;;;;;;2.97;1.75;;;10.60;59.50;;;;;;4956964;28;20059;-73
2024/02/16 03:03:48;;;;;;;4.20;1.80;;;10.60;59.30;;;;;;4956845;28;20042;-73
2024/02/16 03:06:20;;;;;;;4.82;1.95;;;10.60;59.60;;;;;;4956902;28;20026;-73
2024/02/16 03:08:47;;;;;;;4.50;2.40;;;10.50;60.10;;;;;;4957059;28;20126;-73
2024/02/16 03:11:12;;;;;;;4.30;2.22;;;10.50;60.50;;;;;;4972960;28;20313;-73
2024/02/16 03:13:38;;;;;;;4.90;2.13;;;10.40;60.70;;;;;;4956815;28;20031;-73
2024/02/16 03:16:04;;;;;;;2.90;1.75;;;10.40;60.40;;;;;;4972609;28;20047;-72
2024/02/16 03:18:34;;;;;;;4.47;1.88;;;10.40;59.80;;;;;;4956731;28;20019;-74
2024/02/16 03:21:00;;;;;;;5.22;1.48;;;10.40;59.70;;;;;;4956665;28;20035;-74
2024/02/16 03:23:25;;;;;;;5.63;1.92;;;10.40;58.80;;;;;;4972740;28;20536;-74
2024/02/16 03:25:51;;;;;;;3.35;2.10;;;10.40;59.10;;;;;;4973755;28;20027;-75
2024/02/16 03:28:17;;;;;;;3.03;2.03;;;10.50;59.70;;;;;;4973749;28;20089;-74
2024/02/16 03:30:43;;;;;;;3.38;1.80;;;10.50;60.10;;;;;;4956701;28;20027;-73
2024/02/16 03:33:09;;;;;;;4.00;2.13;;;10.40;60.00;;;;;;4972691;28;20369;-74
2024/02/16 03:35:36;;;;;;;3.28;1.60;;;10.40;60.20;;;;;;4972592;28;20030;-75
2024/02/16 03:38:02;;;;;;;2.65;1.80;;;10.30;59.40;;;;;;4973732;28;20022;-73
2024/02/16 03:40:28;;;;;;;3.95;1.58;;;10.30;59.30;;;;;;4972549;28;20061;-74
2024/02/16 03:42:54;;;;;;;3.00;1.90;;;10.40;59.30;;;;;;4956070;28;20035;-74
2024/02/16 03:45:20;;;;;;;7.28;2.10;;;10.40;59.00;;;;;;4956397;28;20034;-74
2024/02/16 03:47:45;;;;;;;3.53;1.50;;;10.40;58.90;;;;;;4973525;28;20035;-73
2024/02/16 03:50:11;;;;;;;6.03;1.80;;;10.40;58.40;;;;;;4956202;28;20023;-73
2024/02/16 03:52:37;;;;;;;4.38;2.22;;;10.40;58.20;;;;;;4956144;28;20361;-74
2024/02/16 03:55:03;;;;;;;5.70;1.80;;;10.50;58.20;;;;;;4958787;28;20034;-73
2024/02/16 03:57:31;;;;;;;3.00;1.70;;;10.50;58.20;;;;;;4976141;28;20038;-72
2024/02/16 03:59:57;;;;;;;2.35;1.45;;;10.40;58.20;;;;;;4960007;28;20467;-72
2024/02/16 04:02:22;;;;;;;4.13;1.80;;;10.50;58.30;;;;;;4960036;28;20042;-74
2024/02/16 04:04:48;;;;;;;4.05;1.80;;;10.40;59.00;;;;;;4959660;28;20109;-73
2024/02/16 04:07:14;;;;;;;3.47;1.50;;;10.40;58.30;;;;;;4959943;28;20432;-73
2024/02/16 04:09:39;;;;;;;4.53;1.88;;;10.50;58.30;;;;;;4959861;28;20027;-73
2024/02/16 04:12:05;;;;;;;3.20;1.25;;;10.50;58.80;;;;;;4943903;28;20023;-72
2024/02/16 04:14:32;;;;;;;2.33;1.30;;;10.40;58.90;;;;;;4975844;28;20052;-73
2024/02/16 04:16:58;;;;;;;1.88;1.40;;;10.40;59.00;;;;;;4976647;28;20382;-75
2024/02/16 04:19:26;;;;;;;4.90;1.33;;;10.50;59.00;;;;;;4959305;28;20082;-73
2024/02/16 04:21:52;;;;;;;5.10;1.52;;;10.50;59.30;;;;;;4959410;28;20424;-74
2024/02/16 04:24:18;;;;;;;4.38;2.05;;;10.50;59.60;;;;;;4976495;28;20075;-74
2024/02/16 04:26:44;;;;;;;4.30;2.88;;;10.40;59.60;;;;;;4959112;28;20023;-74
2024/02/16 04:29:10;;;;;;;6.88;2.42;;;10.30;60.00;;;;;;4975337;28;20031;-72
2024/02/16 04:31:35;;;;;;;5.88;2.03;;;10.30;60.10;;;;;;4976438;28;20384;-74
2024/02/16 04:34:01;;;;;;;5.43;1.95;;;10.20;59.90;;;;;;4958804;28;20392;-73
2024/02/16 04:36:27;;;;;;;7.65;1.92;;;10.20;60.00;;;;;;4959168;28;20027;-72
2024/02/16 04:38:52;;;;;;;4.10;2.40;;;10.10;60.20;;;;;;4959212;28;20022;-73
2024/02/16 04:41:20;;;;;;;4.13;2.10;;;10.10;60.40;;;;;;4958688;28;20503;-72
2024/02/16 04:43:45;;;;;;;4.03;1.92;;;10.10;60.40;;;;;;4975052;28;20042;-73
2024/02/16 04:46:17;;;;;;;3.65;1.92;;;10.10;60.10;;;;;;4958906;28;20023;-72
2024/02/16 04:48:43;;;;;;;3.20;1.52;;;10.10;59.60;;;;;;4976158;28;20041;-72
2024/02/16 04:51:10;;;;;;;2.72;1.35;;;10.10;59.10;;;;;;4974831;28;20026;-72
2024/02/16 04:53:36;;;;;;;2.63;1.52;;;10.10;59.90;;;;;;4974868;28;20483;-73
2024/02/16 04:56:02;;;;;;;2.97;1.70;;;10.20;59.30;;;;;;4958980;28;20089;-72
2024/02/16 04:58:27;;;;;;;6.60;2.22;;;10.10;59.50;;;;;;4958861;28;20301;-72
2024/02/16 05:00:53;;;;;;;2.45;1.77;;;10.10;59.40;;;;;;4958649;28;20106;-72
2024/02/16 05:03:19;;;;;;;8.48;2.22;;;10.10;59.20;;;;;;4958692;28;20046;-72
2024/02/16 05:05:45;;;;;;;2.80;1.70;;;10.10;58.90;;;;;;4957938;28;20543;-72
2024/02/16 05:08:10;;;;;;;3.47;1.90;;;10.20;58.50;;;;;;4958773;28;20077;-72
2024/02/16 05:10:36;;;;;;;4.20;2.55;;;10.20;58.50;;;;;;4958557;28;20065;-73
2024/02/16 05:13:01;;;;;;;5.50;2.90;;;10.30;58.70;;;;;;4958695;28;20027;-73
2024/02/16 05:15:27;;;;;;;4.05;2.20;;;10.30;58.70;;;;;;4958133;28;20380;-74
2024/02/16 05:17:53;;;;;;;5.05;2.20;;;10.30;58.00;;;;;;4958616;28;20031;-72
2024/02/16 05:20:19;;;;;;;4.55;2.13;;;10.30;57.60;;;;;;4958574;28;20486;-73
2024/02/16 05:22:46;;;;;;;5.55;2.40;;;10.40;57.60;;;;;;4958455;28;20035;-73
2024/02/16 05:25:15;;;;;;;11.52;2.10;;;10.40;57.50;;;;;;4975396;28;20023;-74
2024/02/16 05:27:41;;;;;;;5.10;1.90;;;10.40;56.90;;;;;;4975419;28;20038;-72
2024/02/16 05:30:11;;;;;;;6.35;2.03;;;10.50;56.20;;;;;;4958145;28;20023;-72
2024/02/16 05:32:36;;;;;;;7.63;1.95;;;10.50;55.80;;;;;;4974277;28;20380;-72
2024/02/16 05:35:11;;;;;;;3.97;1.80;;;10.60;55.40;;;;;;4958224;28;20033;-72
2024/02/16 05:37:51;;;;;;;3.38;1.80;;;10.60;55.20;;;;;;4958367;28;20027;-72
2024/02/16 05:40:26;;;;;;;4.53;2.72;;;10.70;55.40;;;;;;4975254;28;20015;-73
2024/02/16 05:42:53;;;;;;;4.88;2.30;;;10.50;58.80;;;;;;4975183;28;20037;-72
2024/02/16 05:45:19;;;;;;;8.10;3.20;;;10.40;58.80;;;;;;4975242;28;20023;-72
2024/02/16 05:47:45;;;;;;;4.22;2.70;;;10.40;59.80;;;;;;4975250;28;20034;-72
2024/02/16 05:50:12;;;;;;;4.20;2.40;;;10.30;59.90;;;;;;4974185;28;20029;-72
2024/02/16 05:52:38;;;;;;;4.53;2.60;;;10.30;59.40;;;;;;4974084;28;20023;-73
2024/02/16 05:55:08;;;;;;;3.22;2.13;;;10.30;59.00;;;;;;4973759;28;20027;-73
2024/02/16 05:57:34;;;;;;;3.90;2.30;;;10.30;59.00;;;;;;4975047;28;20027;-72
2024/02/16 06:00:00;;;;;;;3.20;1.90;;;10.20;59.20;;;;;;4973971;28;20062;-74
2024/02/16 06:02:27;;;;;;;6.10;2.35;;;10.20;59.10;;;;;;4975077;28;20061;-74
2024/02/16 06:04:53;;;;;;;8.30;2.47;;;10.20;58.80;;;;;;4974874;28;20444;-73
2024/02/16 06:07:19;;;;;;;7.88;3.03;;;10.10;58.90;;;;;;4973845;28;20050;-74
2024/02/16 06:09:44;;;;;;;5.97;2.63;;;10.10;59.40;;;;;;4957443;28;20069;-73
2024/02/16 06:12:12;;;;;;;3.83;2.33;;;10.00;59.80;;;;;;4957655;28;20019;-73
2024/02/16 06:14:38;;;;;;;8.10;2.58;;;10.00;60.00;;;;;;4961910;28;20117;-74
2024/02/16 06:17:04;;;;;;;6.45;3.08;;;9.90;60.40;;;;;;4957062;28;20138;-73
2024/02/16 06:19:30;;;;;;;5.00;2.60;;;9.80;61.00;;;;;;4974791;28;20391;-72
2024/02/16 06:21:56;;;;;;;9.25;2.63;;;9.70;61.10;;;;;;4957014;28;20026;-72
2024/02/16 06:24:22;;;;;;;9.38;2.67;;;9.70;61.40;;;;;;4957517;28;20480;-73
2024/02/16 06:26:53;;;;;;;7.65;3.00;;;9.70;61.40;;;;;;4957037;28;20309;-74
2024/02/16 06:29:21;;;;;;;5.20;2.78;;;9.60;61.50;;;;;;4973591;28;20054;-72
2024/02/16 06:31:47;;;;;;;8.45;2.97;;;9.60;61.50;;;;;;4956791;28;20073;-74
2024/02/16 06:34:13;;;;;;;6.28;2.55;;;9.60;61.50;;;;;;4957047;28;20475;-73
2024/02/16 06:36:39;;;;;;;3.88;2.22;;;9.60;61.40;;;;;;4974065;28;20039;-73
2024/02/16 06:39:04;;;;;;;6.32;2.25;;;9.60;61.40;;;;;;4956973;28;20037;-73
2024/02/16 06:41:30;;;;;;;7.30;4.28;;;9.60;61.40;;;;;;4956845;28;20395;-73
2024/02/16 06:43:55;;;;;;;11.68;4.60;;;9.60;62.50;;;;;;4957183;28;20476;-73
2024/02/16 06:46:22;;;;;;;8.30;4.75;;;9.60;62.80;;;;;;4956777;28;20511;-73
2024/02/16 06:48:48;;;;;;;11.23;4.78;;;9.50;63.20;;;;;;4957012;28;20090;-73
2024/02/16 06:51:13;;;;;;;8.38;5.43;;;9.50;64.00;;;;;;4957023;28;20019;-73
2024/02/16 06:53:39;;;;;;;8.45;4.25;;;9.40;64.40;;;;;;4956818;28;20134;-72
2024/02/16 06:56:05;;;;;;;5.47;3.25;;;9.40;64.80;;;;;;4956837;28;20033;-72
2024/02/16 06:58:30;;;;;;;8.48;3.15;;;9.30;64.70;;;;;;4956923;28;20031;-72
2024/02/16 07:00:57;;;;;;;9.25;3.15;;;9.30;64.10;;;;;;4973893;28;20038;-72
2024/02/16 07:03:23;;;;;;;6.07;2.78;;;9.30;63.70;;;;;;4956912;28;20035;-73
2024/02/16 07:05:49;;;;;;;5.18;2.78;;;9.40;63.30;;;;;;4974013;28;20094;-73
2024/02/16 07:08:15;;;;;;;6.00;3.20;;;9.50;62.60;;;;;;4956774;28;20062;-73
2024/02/16 07:10:40;;;;;;;6.43;2.78;;;9.60;62.10;;;;;;4973768;28;20023;-73
2024/02/16 07:13:06;;;;;;;6.97;2.92;;;9.70;62.00;;;;;;4956467;28;20476;-74
2024/02/16 07:15:32;;;;;;;9.68;3.10;;;9.80;61.40;;;;;;4956496;28;20035;-73
2024/02/16 07:17:58;;;;;;;7.53;3.17;;;9.90;61.40;;;;;;4956569;28;20472;-73
2024/02/16 07:20:23;;;;;;;5.82;2.95;;;9.90;61.30;;;;;;4956733;28;20023;-74
2024/02/16 07:22:51;;;;;;;7.35;3.72;;;9.90;61.40;;;;;;4973755;28;20085;-73
2024/02/16 07:25:17;;;;;;;7.47;3.42;;;9.90;61.20;;;;;;4973870;28;20094;-73
2024/02/16 07:27:43;;;;;;;6.60;3.20;;;9.90;61.20;;;;;;4973729;28;20114;-73
2024/02/16 07:30:10;;;;;;;6.35;3.28;;;9.90;60.90;;;;;;4976670;28;20510;-74
2024/02/16 07:32:36;;;;;;;6.68;3.90;;;10.00;60.50;;;;;;4977865;28;20018;-73
2024/02/16 07:35:03;;;;;;;6.20;3.40;;;10.10;60.70;;;;;;4978584;28;20029;-74
2024/02/16 07:37:28;;;;;;;7.97;3.75;;;10.20;60.70;;;;;;4979906;28;20050;-73
2024/02/16 07:39:54;;;;;;;9.85;4.00;;;10.20;60.50;;;;;;4977958;28;20425;-74
2024/02/16 07:42:20;;;;;;;8.60;4.30;;;10.30;60.30;;;;;;4977442;28;20034;-72
2024/02/16 07:44:46;;;;;;;9.98;4.68;;;10.30;60.20;;;;;;4977581;28;20026;-72
2024/02/16 07:47:12;;;;;;;10.48;4.30;;;10.30;59.90;;;;;;4976308;28;20031;-73
2024/02/16 07:49:39;;;;;;;8.38;4.82;;;10.30;59.80;;;;;;4977352;28;20026;-72
2024/02/16 07:52:05;;;;;;;11.98;4.28;;;10.40;59.70;;;;;;4977250;28;20019;-72
2024/02/16 07:54:30;;;;;;;9.68;4.30;;;10.40;59.80;;;;;;4977362;28;20523;-73
2024/02/16 07:56:59;;;;;;;8.88;3.70;;;10.50;59.50;;;;;;4977303;28;20027;-73
2024/02/16 07:59:25;;;;;;;6.93;3.90;;;10.50;59.30;;;;;;4977230;28;20046;-74
2024/02/16 08:01:50;;;;;;;8.80;3.90;;;10.60;59.20;;;;;;4976959;28;20055;-72
2024/02/16 08:04:16;;;;;;;8.00;3.92;;;10.60;59.10;;;;;;4976979;28;20507;-72
2024/02/16 08:06:41;;;;;;;9.00;4.13;;;10.60;59.70;;;;;;4976923;28;20030;-74
2024/02/16 08:09:07;;;;;;;7.60;4.50;;;10.60;59.00;;;;;;4977172;28;20454;-73
2024/02/16 08:11:33;;;;;;;8.88;4.13;;;10.70;58.80;;;;;;4977087;28;20120;-74
2024/02/16 08:14:00;;;;;;;5.63;4.03;;;10.70;58.60;;;;;;4977022;28;20388;-73
2024/02/16 08:16:27;;;;;;;8.07;4.10;;;10.80;58.00;;;;;;4976189;28;20043;-73
2024/02/16 08:18:53;;;;;;;9.35;3.92;;;10.90;57.80;;;;;;4975894;28;20019;-71
2024/02/16 08:21:18;;;;;;;9.20;3.22;;;11.20;60.70;;;;;;4977373;28;20034;-72
2024/02/16 08:23:44;;;;;;;7.78;3.42;;;11.60;61.10;;;;;;4977656;28;20070;-74
2024/02/16 08:26:09;;;;;;;7.97;3.30;;;12.00;60.50;;;;;;4976711;28;20521;-74
2024/02/16 08:28:35;;;;;;;9.85;3.15;;;12.40;56.20;;;;;;4976955;28;20439;-72
2024/02/16 08:31:00;;;;;;;10.25;3.38;;;12.60;53.30;;;;;;4976668;28;20345;-74
2024/02/16 08:33:26;;;;;;;11.38;3.65;;;12.70;52.80;;;;;;4976441;28;20073;-74
2024/02/16 08:35:52;;;;;;;13.30;3.72;;;12.70;52.40;;;;;;4977057;28;20027;-72
2024/02/16 08:38:18;;;;;;;8.70;3.85;;;12.60;52.30;;;;;;4976542;28;20046;-72
2024/02/16 08:40:43;;;;;;;9.98;3.95;;;12.80;52.50;;;;;;4975339;28;20023;-73
2024/02/16 08:43:09;;;;;;;6.55;4.18;;;12.80;52.20;;;;;;4959253;28;20043;-72
2024/02/16 08:45:34;;;;;;;7.78;4.00;;;13.00;51.60;;;;;;4976535;28;20060;-76
2024/02/16 08:48:02;;;;;;;5.18;3.53;;;12.90;51.80;;;;;;4976221;28;20467;-72
2024/02/16 08:50:27;;;;;;;5.90;3.35;;;13.00;51.70;;;;;;4976120;28;20027;-73
2024/02/16 08:52:54;;;;;;;9.40;4.10;;;13.00;51.70;;;;;;4974892;28;20045;-73
2024/02/16 08:55:19;;;;;;;7.05;3.30;;;13.00;51.50;;;;;;4976308;28;20023;-72
2024/02/16 08:57:45;;;;;;;8.55;3.42;;;13.00;51.60;;;;;;4976553;28;20085;-73
2024/02/16 09:00:11;;;;;;;8.65;3.70;;;13.00;51.70;;;;;;4976134;28;20086;-73
2024/02/16 09:02:37;;;;;;;5.68;2.95;;;13.10;51.80;;;;;;4976041;28;20384;-73
2024/02/16 09:05:03;;;;;;;5.35;3.10;;;13.10;51.30;;;;;;4976162;28;20031;-73
2024/02/16 09:07:29;;;;;;;3.92;3.22;;;13.20;51.30;;;;;;4975996;28;20038;-73
2024/02/16 09:09:56;;;;;;;5.05;3.35;;;13.30;51.60;;;;;;4975836;28;20026;-72
2024/02/16 09:12:22;;;;;;;6.10;3.47;;;13.50;51.80;;;;;;4975897;28;20023;-74
2024/02/16 09:14:47;;;;;;;9.45;4.15;;;13.50;51.30;;;;;;4976058;28;20039;-74
2024/02/16 09:17:13;;;;;;;10.88;4.53;;;13.60;50.90;;;;;;4975616;28;20069;-72
2024/02/16 09:19:39;;;;;;;9.10;4.45;;;13.70;51.40;;;;;;4975792;28;20031;-73
2024/02/16 09:22:06;;;;;;;11.95;4.38;;;13.80;51.80;;;;;;4975301;28;20124;-73
2024/02/16 09:24:32;;;;;;;6.47;4.10;;;13.70;51.80;;;;;;4975795;28;20475;-73
2024/02/16 09:27:03;;;;;;;7.65;3.88;;;13.70;51.80;;;;;;4958321;28;20042;-72
2024/02/16 09:29:29;;;;;;;8.50;3.75;;;13.80;51.80;;;;;;4975470;28;20033;-73
2024/02/16 09:31:54;;;;;;;8.10;3.38;;;13.80;51.70;;;;;;4975616;28;20399;-73
2024/02/16 09:34:20;;;;;;;7.72;3.83;;;13.90;52.00;;;;;;4975608;28;20023;-73
2024/02/16 09:36:45;;;;;;;6.13;3.70;;;14.00;52.30;;;;;;4975352;28;20464;-74
2024/02/16 09:39:11;;;;;;;8.80;3.58;;;14.00;52.60;;;;;;4974203;28;20034;-75
2024/02/16 09:41:38;;;;;;;4.75;3.42;;;14.10;52.70;;;;;;4975331;28;20031;-72
2024/02/16 09:44:03;;;;;;;12.20;3.60;;;14.20;52.40;;;;;;4975082;28;20042;-74
2024/02/16 09:46:31;;;;;;;8.57;3.90;;;14.20;52.10;;;;;;4975153;28;20097;-75
2024/02/16 09:49:01;;;;;;;6.85;3.85;;;14.30;52.00;;;;;;4975184;28;20023;-74
2024/02/16 09:51:28;;;;;;;6.72;3.75;;;14.30;51.80;;;;;;4974859;28;20027;-74
2024/02/16 09:53:55;;;;;;;6.10;3.67;;;14.40;51.80;;;;;;4975124;28;20030;-74
2024/02/16 09:56:20;;;;;;;6.28;3.90;;;14.50;51.80;;;;;;4975108;28;20073;-72
2024/02/16 09:58:46;;;;;;;8.68;3.60;;;14.60;51.80;;;;;;4974903;28;20109;-73
2024/02/16 10:01:20;;;;;;;7.65;3.58;;;14.60;51.80;;;;;;4975149;28;20395;-73
2024/02/16 10:03:46;;;;;;;5.63;3.63;;;14.70;51.70;;;;;;4974795;28;20039;-73
2024/02/16 10:06:11;;;;;;;4.93;3.55;;;14.80;51.60;;;;;;4975025;28;20034;-72
2024/02/16 10:08:59;;;;;;;6.18;3.20;;;14.80;51.40;;;;;;4974973;28;20416;-72
2024/02/16 10:11:28;;;;;;;5.40;3.60;;;14.90;50.80;;;;;;4974921;28;20126;-74
2024/02/16 10:13:58;;;;;;;6.63;3.33;;;15.00;50.50;;;;;;4974773;28;20023;-73
2024/02/16 10:16:24;;;;;;;8.02;3.70;;;15.10;50.30;;;;;;4974554;28;20051;-73
2024/02/16 10:18:50;;;;;;;6.70;3.50;;;15.10;50.10;;;;;;4959180;28;20495;-73
2024/02/16 10:21:25;;;;;;;8.10;3.83;;;15.20;50.00;;;;;;4957691;28;20027;-72
2024/02/16 10:24:01;;;;;;;5.03;3.38;;;15.40;49.90;;;;;;4974406;28;20042;-72
2024/02/16 10:26:27;;;;;;;6.13;3.47;;;15.40;49.80;;;;;;4974583;28;20027;-73
2024/02/16 10:28:56;;;;;;;7.88;3.30;;;15.60;49.10;;;;;;4974601;28;20038;-73
2024/02/16 10:31:28;;;;;;;6.68;3.35;;;15.80;48.50;;;;;;4974488;28;20065;-73
2024/02/16 10:34:06;;;;;;;4.07;2.65;;;16.00;48.40;;;;;;4974599;28;20387;-72
2024/02/16 10:36:36;;;;;;;5.97;2.63;;;16.20;47.50;;;;;;4974420;28;20118;-73
2024/02/16 10:39:05;;;;;;;5.90;3.28;;;16.30;47.50;;;;;;4956825;28;20391;-74
2024/02/16 10:41:36;;;;;;;6.57;3.63;;;16.40;46.70;;;;;;4974167;28;20027;-73
2024/02/16 10:44:03;;;;;;;9.27;3.42;;;16.60;46.20;;;;;;4974137;28;20583;-72
2024/02/16 10:46:28;;;;;;;5.00;3.20;;;16.70;46.00;;;;;;4974182;28;20023;-74
2024/02/16 10:48:54;;;;;;;6.47;3.58;;;16.90;46.00;;;;;;4974133;28;20086;-72
2024/02/16 10:51:42;;;;;;;4.05;3.30;;;17.00;45.80;;;;;;4974197;28;20042;-72
2024/02/16 10:54:08;;;;;;;5.18;3.15;;;17.20;45.40;;;;;;4974252;28;20098;-72
2024/02/16 10:56:38;;;;;;;5.35;3.28;;;17.40;44.90;;;;;;4974175;28;20468;-72
2024/02/16 10:59:04;;;;;;;7.40;3.75;;;17.60;44.10;;;;;;4956764;28;20030;-73
2024/02/16 11:01:38;;;;;;;7.47;3.70;;;17.50;43.60;;;;;;4973820;28;20510;-73
2024/02/16 11:04:04;;;;;;;5.03;3.13;;;17.60;43.80;;;;;;4973075;28;20045;-73
2024/02/16 11:06:31;;;;;;;11.45;3.75;;;17.60;43.00;;;;;;4974078;28;20476;-73
2024/02/16 11:09:04;;;;;;;8.23;2.90;;;17.70;42.90;;;;;;4973919;28;20038;-73
2024/02/16 11:11:29;;;;;;;5.53;3.35;;;17.80;43.00;;;;;;4973780;28;20034;-72
2024/02/16 11:13:56;;;;;;;6.30;2.92;;;17.90;43.00;;;;;;4973629;28;20033;-72
2024/02/16 11:16:22;;;;;;;9.93;3.03;;;18.00;43.00;;;;;;4973612;28;20050;-73
2024/02/16 11:18:49;;;;;;;5.45;2.20;;;18.20;42.00;;;;;;4973926;28;20038;-76
2024/02/16 11:21:17;;;;;;;5.68;2.50;;;18.10;41.80;;;;;;4974137;28;20482;-73
2024/02/16 11:23:44;;;;;;;4.25;2.47;;;18.00;42.00;;;;;;4973975;28;20097;-73
2024/02/16 11:26:11;;;;;;;3.75;2.10;;;18.00;42.50;;;;;;4956428;28;20055;-73
2024/02/16 11:28:38;;;;;;;5.25;1.80;;;18.00;42.20;;;;;;4973678;28;20046;-73
2024/02/16 11:31:04;;;;;;;4.38;2.00;;;18.20;42.30;;;;;;4973711;28;20365;-74
2024/02/16 11:33:30;;;;;;;5.95;2.03;;;18.50;42.40;;;;;;4973641;28;20483;-73
2024/02/16 11:36:01;;;;;;;6.10;2.45;;;18.50;41.10;;;;;;4973846;28;20033;-73
2024/02/16 11:38:27;;;;;;;4.65;2.15;;;18.40;41.40;;;;;;4973893;28;20026;-74
2024/02/16 11:40:57;;;;;;;9.75;2.08;;;18.00;42.70;;;;;;4976199;28;20384;-74
2024/02/16 11:43:23;;;;;;;6.65;2.50;;;17.80;43.60;;;;;;4973692;28;20114;-73
2024/02/16 11:45:50;;;;;;;3.38;1.92;;;17.60;44.40;;;;;;4973577;28;20019;-73
2024/02/16 11:48:21;;;;;;;6.97;2.05;;;17.40;45.00;;;;;;4973392;28;20033;-72
2024/02/16 11:50:47;;;;;;;5.60;2.80;;;17.40;45.20;;;;;;4973376;28;20136;-72
2024/02/16 11:53:18;;;;;;;9.57;3.50;;;17.50;45.70;;;;;;4973420;28;20019;-72
2024/02/16 11:55:50;;;;;;;7.22;3.15;;;17.60;45.10;;;;;;4973384;28;20030;-74
2024/02/16 11:58:20;;;;;;;5.88;2.50;;;17.70;44.50;;;;;;4973395;28;20034;-73
2024/02/16 12:00:53;;;;;;;6.43;2.80;;;17.80;44.80;;;;;;4973278;28;20432;-72
2024/02/16 12:03:22;;;;;;;7.10;2.88;;;17.90;43.60;;;;;;4973492;28;20042;-73
2024/02/16 12:05:55;;;;;;;7.40;2.95;;;18.00;42.90;;;;;;4973333;28;20023;-72
2024/02/16 12:08:21;;;;;;;4.88;2.42;;;18.00;43.50;;;;;;4973360;28;20027;-74
2024/02/16 12:10:51;;;;;;;3.88;2.17;;;18.10;43.70;;;;;;4973058;28;20034;-73
2024/02/16 12:13:18;;;;;;;5.13;1.90;;;18.10;43.30;;;;;;4955877;28;20022;-74
2024/02/16 12:15:56;;;;;;;3.35;2.15;;;18.20;42.70;;;;;;4975117;28;20061;-73
2024/02/16 12:18:23;;;;;;;6.18;2.40;;;18.30;42.70;;;;;;4976937;28;20022;-73
2024/02/16 12:21:05;;;;;;;4.10;2.83;;;18.20;42.80;;;;;;4976692;28;20380;-73
2024/02/16 12:23:32;;;;;;;5.97;2.55;;;18.10;43.90;;;;;;4976134;28;20079;-73
2024/02/16 12:26:02;;;;;;;6.00;2.60;;;17.90;43.70;;;;;;4976450;28;20468;-74
2024/02/16 12:28:30;;;;;;;5.47;3.15;;;17.70;44.40;;;;;;4976736;28;20534;-73
2024/02/16 12:30:55;;;;;;;6.75;3.65;;;17.70;44.70;;;;;;4975843;28;20121;-72
2024/02/16 12:33:22;;;;;;;5.03;2.53;;;17.60;46.60;;;;;;4958622;28;20428;-74
2024/02/16 12:35:48;;;;;;;4.80;2.55;;;17.50;45.70;;;;;;4976505;28;20106;-74
2024/02/16 12:38:16;;;;;;;6.82;3.15;;;17.40;45.50;;;;;;4976340;28;20062;-74
2024/02/16 12:40:43;;;;;;;5.03;2.50;;;17.20;46.60;;;;;;4976400;28;20026;-71
2024/02/16 12:43:10;;;;;;;7.82;3.50;;;17.20;46.90;;;;;;4976322;28;20368;-72
2024/02/16 12:45:36;;;;;;;6.63;2.55;;;17.20;46.60;;;;;;4976494;28;20372;-74